Cimetta, Switzerland
Current Conditions -  °F | °C
As of 8:50 AM on Friday 24 Oct 2014 (Local Time) from LSZL Reporting Station
Clear Clear  
Wind Chill: 43°   Ceiling: Unl
Heat Index: 43°   Visibility: 6mi
Dew Point: 36°   Wind: 2mph
Humidity: 76%   Direction: NA
Pressure: 29.94"   Gusts: NA
Location:  46.2°N, 8.8°E
Report Text: LSZL 240650Z VRB02KT CAVOK 06/02 Q1014 RMK BLU
Loading
Personal Weather Stations






























Interactive Weather Map
Tropical Storm Tracking
New forecast layout! Learn more

10-Day Weather Forecast

Advertisements
Track Severe Weather on mobile